Terminal Aerodrome Forecast
Issued by NWS Shreveport, LA

Home | Current Version | Previous Version | Text Only | Print | Product List | Glossary On
Versions: 1 2 3 4 5 6 7 8 9 10 11 12 13 14 15 16 17 18 19 20 21 22 23 24
611
FTUS44 KSHV 231740
TAFGGG
TAF
KGGG 231740Z 2318/2418 20014G19KT P6SM SKC
     FM240100 16010KT P6SM SKC
     FM240900 17012G20KT P6SM SCT015 BKN025
     FM241500 17017G24KT P6SM VCSH OVC025=

USA.gov is the U.S. government's official web portal to all federal, state and local government web resources and services.